createdAt,value
2023-05-03T00:00:10.354Z,2.43
2023-05-03T00:02:40.543Z,2.70
2023-05-03T00:05:13.013Z,2.93
2023-05-03T00:07:43.303Z,3.00
2023-05-03T00:10:12.896Z,2.53
2023-05-03T00:12:40.747Z,2.63
2023-05-03T00:15:08.736Z,3.10
2023-05-03T00:17:36.220Z,2.87
2023-05-03T00:20:06.450Z,3.10
2023-05-03T00:22:33.294Z,3.00
2023-05-03T00:25:00.661Z,3.20
2023-05-03T00:27:27.289Z,2.77
2023-05-03T00:29:53.935Z,2.97
2023-05-03T00:32:22.783Z,3.23
2023-05-03T00:34:57.303Z,3.30
2023-05-03T00:37:25.513Z,3.63
2023-05-03T00:39:52.822Z,3.33
2023-05-03T00:42:19.591Z,2.47
2023-05-03T00:44:46.390Z,3.33
2023-05-03T00:47:13.268Z,2.73
2023-05-03T00:49:40.057Z,2.97
2023-05-03T00:52:06.991Z,3.07
2023-05-03T00:54:35.412Z,3.30
2023-05-03T00:57:04.583Z,2.80
2023-05-03T00:59:33.108Z,3.37
2023-05-03T01:02:00.148Z,3.80
2023-05-03T01:04:27.743Z,3.40
2023-05-03T01:07:20.416Z,3.83
2023-05-03T01:09:53.286Z,3.30
2023-05-03T01:12:39.106Z,3.20
2023-05-03T01:15:17.074Z,2.70
2023-05-03T01:17:57.334Z,3.00
2023-05-03T01:20:30.983Z,2.80
2023-05-03T01:23:05.499Z,3.00
2023-05-03T01:25:32.842Z,3.13
2023-05-03T01:28:01.432Z,2.87
2023-05-03T01:30:31.222Z,2.90
2023-05-03T01:33:07.018Z,2.80
2023-05-03T01:35:45.956Z,2.80
2023-05-03T01:38:14.013Z,3.20
2023-05-03T01:40:48.740Z,3.07
2023-05-03T01:43:17.205Z,3.17
2023-05-03T01:45:44.858Z,3.47
2023-05-03T01:48:17.172Z,3.13
2023-05-03T01:50:44.337Z,3.40
2023-05-03T01:53:11.015Z,3.17
2023-05-03T01:55:37.694Z,3.83
2023-05-03T01:58:04.531Z,3.50
2023-05-03T02:00:31.364Z,3.30
2023-05-03T02:02:58.515Z,3.80
2023-05-03T02:05:26.202Z,3.57
2023-05-03T02:07:52.834Z,2.97
2023-05-03T02:10:19.592Z,3.30
2023-05-03T02:12:46.623Z,3.90
2023-05-03T02:15:13.968Z,3.37
2023-05-03T02:17:42.541Z,3.10
2023-05-03T02:20:12.736Z,4.10
2023-05-03T02:22:39.445Z,3.97
2023-05-03T02:25:07.226Z,3.90
2023-05-03T02:27:34.097Z,3.73
2023-05-03T02:30:01.410Z,4.67
2023-05-03T02:32:28.513Z,4.50
2023-05-03T02:34:55.595Z,4.60
2023-05-03T02:37:22.302Z,3.90
2023-05-03T02:39:48.964Z,4.60
2023-05-03T02:42:16.268Z,4.70
2023-05-03T02:44:42.959Z,4.93
2023-05-03T02:47:10.548Z,5.20
2023-05-03T02:49:37.340Z,4.73
2023-05-03T02:52:03.997Z,4.70
2023-05-03T02:54:31.499Z,4.57
2023-05-03T02:56:58.174Z,5.00
2023-05-03T02:59:24.826Z,4.53
2023-05-03T03:01:51.478Z,3.90
2023-05-03T03:04:19.038Z,4.50
2023-05-03T03:06:46.196Z,5.27
2023-05-03T03:09:13.147Z,4.40
2023-05-03T03:11:40.113Z,4.77
2023-05-03T03:14:06.828Z,4.70
2023-05-03T03:16:33.486Z,5.37
2023-05-03T03:19:00.385Z,4.30
2023-05-03T03:21:29.054Z,4.60
2023-05-03T03:23:56.858Z,4.80
2023-05-03T03:26:23.632Z,5.33
2023-05-03T03:28:50.431Z,4.57
2023-05-03T03:31:18.368Z,4.97
2023-05-03T03:33:45.256Z,5.20
2023-05-03T03:36:11.973Z,5.10
2023-05-03T03:38:38.741Z,4.60
2023-05-03T03:41:06.004Z,4.80
2023-05-03T03:43:32.891Z,5.13
2023-05-03T03:45:59.743Z,5.27
2023-05-03T03:48:26.507Z,6.00
2023-05-03T03:50:53.222Z,5.77
2023-05-03T03:53:23.645Z,5.53
2023-05-03T03:55:50.574Z,5.53
2023-05-03T03:58:17.272Z,5.93
2023-05-03T04:00:44.142Z,6.33
2023-05-03T04:03:11.075Z,5.60
2023-05-03T04:05:37.882Z,5.63
2023-05-03T04:08:04.824Z,5.23
2023-05-03T04:10:31.719Z,5.40
2023-05-03T04:12:58.417Z,5.90
2023-05-03T04:15:39.933Z,5.90
2023-05-03T04:18:26.937Z,6.23
2023-05-03T04:21:13.612Z,6.27
2023-05-03T04:24:00.739Z,6.27
2023-05-03T04:26:36.011Z,6.30
2023-05-03T04:29:20.140Z,6.60
2023-05-03T04:31:53.145Z,6.20
2023-05-03T04:34:24.960Z,6.67
2023-05-03T04:37:11.566Z,6.53
2023-05-03T04:39:45.396Z,6.50
2023-05-03T04:42:33.361Z,6.43
2023-05-03T04:45:20.938Z,6.07
2023-05-03T04:47:48.338Z,6.17
2023-05-03T04:50:16.055Z,5.63
2023-05-03T04:52:42.676Z,6.03
2023-05-03T04:55:09.753Z,6.37
2023-05-03T04:57:36.438Z,6.40
2023-05-03T05:00:04.599Z,5.90
2023-05-03T05:02:31.495Z,6.20
2023-05-03T05:04:58.183Z,6.97
2023-05-03T05:07:24.778Z,6.37
2023-05-03T05:09:51.678Z,6.63
2023-05-03T05:12:18.455Z,5.73
2023-05-03T05:14:45.156Z,6.67
2023-05-03T05:17:11.902Z,7.50
2023-05-03T05:19:38.688Z,7.00
2023-05-03T05:22:05.610Z,7.60
2023-05-03T05:24:32.544Z,8.83
2023-05-03T05:26:59.189Z,9.10
2023-05-03T05:29:26.293Z,7.77
2023-05-03T05:31:53.218Z,8.63
2023-05-03T05:34:20.009Z,9.20
2023-05-03T05:36:48.267Z,8.60
2023-05-03T05:39:14.883Z,9.50
2023-05-03T05:41:41.544Z,8.97
2023-05-03T05:44:08.204Z,8.73
2023-05-03T05:46:34.888Z,8.80
2023-05-03T05:49:01.672Z,8.43
2023-05-03T05:51:30.378Z,8.00
2023-05-03T05:53:57.163Z,8.50
2023-05-03T05:56:23.992Z,7.97
2023-05-03T05:58:50.708Z,8.17
2023-05-03T06:01:17.337Z,7.37
2023-05-03T06:03:43.961Z,7.23
2023-05-03T06:06:10.960Z,6.97
2023-05-03T06:08:37.633Z,7.00
2023-05-03T06:11:05.383Z,6.60
2023-05-03T06:13:34.615Z,6.53
2023-05-03T06:16:01.593Z,5.83
2023-05-03T06:18:29.119Z,6.07
2023-05-03T06:20:56.698Z,6.40
2023-05-03T06:23:23.937Z,5.37
2023-05-03T06:25:51.771Z,5.93
2023-05-03T06:28:20.291Z,6.20
2023-05-03T06:30:50.642Z,6.07
2023-05-03T06:33:17.551Z,5.20
2023-05-03T06:35:44.243Z,5.53
2023-05-03T06:38:12.228Z,5.00
2023-05-03T06:40:41.340Z,5.10
2023-05-03T06:43:08.184Z,4.80
2023-05-03T06:45:35.230Z,5.67
2023-05-03T06:48:02.887Z,4.80
2023-05-03T06:50:29.682Z,4.77
2023-05-03T06:52:56.518Z,3.87
2023-05-03T06:55:23.159Z,4.23
2023-05-03T06:57:49.904Z,4.13
2023-05-03T07:00:17.004Z,4.40
2023-05-03T07:02:43.807Z,3.77
2023-05-03T07:05:10.942Z,3.97
2023-05-03T07:07:37.879Z,4.13
2023-05-03T07:10:05.391Z,3.77
2023-05-03T07:12:32.454Z,4.60
2023-05-03T07:14:59.234Z,3.70
2023-05-03T07:17:25.979Z,3.67
2023-05-03T07:19:53.193Z,3.80
2023-05-03T07:22:21.371Z,3.97
2023-05-03T07:24:49.839Z,3.70
2023-05-03T07:27:18.971Z,3.37
2023-05-03T07:29:45.833Z,3.53
2023-05-03T07:32:13.012Z,3.00
2023-05-03T07:34:39.894Z,3.17
2023-05-03T07:37:06.696Z,2.90
2023-05-03T07:39:33.793Z,2.60
2023-05-03T07:42:02.765Z,2.17
2023-05-03T07:44:29.815Z,2.20
2023-05-03T07:46:57.375Z,2.67
2023-05-03T07:49:24.767Z,2.80
2023-05-03T07:51:51.676Z,2.73
2023-05-03T07:54:18.744Z,2.60
2023-05-03T07:56:45.576Z,1.77
2023-05-03T07:59:12.336Z,2.00
2023-05-03T08:01:39.056Z,2.30
2023-05-03T08:04:06.072Z,2.00
2023-05-03T08:06:35.548Z,1.60
2023-05-03T08:09:02.615Z,1.90
2023-05-03T08:11:29.406Z,2.57
2023-05-03T08:13:56.616Z,3.10
2023-05-03T08:16:23.419Z,3.07
2023-05-03T08:18:50.308Z,2.70
2023-05-03T08:21:17.701Z,2.27
2023-05-03T08:23:45.130Z,2.63
2023-05-03T08:26:14.354Z,2.53
2023-05-03T08:28:41.554Z,2.70
2023-05-03T08:31:09.001Z,2.57
2023-05-03T08:33:35.858Z,2.40
2023-05-03T08:36:03.162Z,2.10
2023-05-03T08:38:29.968Z,2.20
2023-05-03T08:40:59.555Z,2.40
2023-05-03T08:43:28.848Z,2.40
2023-05-03T08:45:56.003Z,2.60
2023-05-03T08:48:23.254Z,2.50
2023-05-03T08:50:52.879Z,2.50
2023-05-03T08:53:19.552Z,2.33
2023-05-03T08:55:46.283Z,2.50
2023-05-03T08:58:13.647Z,2.00
2023-05-03T09:00:44.830Z,2.03
2023-05-03T09:03:12.442Z,2.37
2023-05-03T09:05:40.553Z,2.40
2023-05-03T09:08:09.235Z,2.30
2023-05-03T09:10:39.637Z,1.90
2023-05-03T09:13:07.889Z,1.93
2023-05-03T09:15:35.524Z,2.00
2023-05-03T09:18:09.378Z,2.13
2023-05-03T09:20:37.793Z,2.00
2023-05-03T09:23:04.529Z,2.90
2023-05-03T09:25:45.014Z,2.40
2023-05-03T09:28:16.063Z,2.53
2023-05-03T09:30:43.713Z,2.30
2023-05-03T09:33:11.805Z,2.80
2023-05-03T09:35:39.096Z,2.37
2023-05-03T09:38:06.297Z,2.40
2023-05-03T09:40:33.118Z,2.77
2023-05-03T09:43:13.013Z,2.50
2023-05-03T09:45:40.463Z,2.50
2023-05-03T09:48:08.332Z,2.60
2023-05-03T09:50:36.606Z,2.60
2023-05-03T09:53:07.421Z,2.27
2023-05-03T09:55:39.656Z,2.67
2023-05-03T09:58:07.718Z,2.57
2023-05-03T10:00:38.883Z,2.50
2023-05-03T10:03:11.400Z,2.27
2023-05-03T10:05:48.085Z,2.63
2023-05-03T10:08:38.973Z,2.57
2023-05-03T10:11:09.013Z,2.23
2023-05-03T10:13:36.489Z,2.50
2023-05-03T10:16:11.718Z,2.77
2023-05-03T10:19:15.112Z,2.43
2023-05-03T10:21:53.883Z,2.50
2023-05-03T10:24:20.617Z,2.40
2023-05-03T10:26:49.884Z,2.43
2023-05-03T10:29:34.802Z,2.23
2023-05-03T10:32:32.610Z,2.63
2023-05-03T10:35:07.965Z,2.10
2023-05-03T10:37:36.215Z,2.10
2023-05-03T10:40:14.000Z,2.40
2023-05-03T10:42:45.653Z,2.10
2023-05-03T10:45:25.747Z,2.53
2023-05-03T10:48:11.311Z,2.30
2023-05-03T10:50:38.944Z,2.60
2023-05-03T10:53:06.381Z,2.77
2023-05-03T10:55:33.821Z,2.10
2023-05-03T10:58:01.869Z,2.63
2023-05-03T11:00:39.096Z,2.53
2023-05-03T11:03:18.476Z,2.30
2023-05-03T11:05:47.300Z,2.60
2023-05-03T11:08:17.161Z,2.27
2023-05-03T11:10:48.528Z,2.80
2023-05-03T11:13:15.736Z,2.67
2023-05-03T11:15:43.347Z,2.60
2023-05-03T11:18:14.313Z,2.50
2023-05-03T11:20:41.185Z,2.37
2023-05-03T11:23:07.958Z,2.40
2023-05-03T11:25:35.463Z,2.10
2023-05-03T11:28:02.874Z,2.57
2023-05-03T11:30:30.434Z,2.07
2023-05-03T11:32:58.923Z,2.60
2023-05-03T11:35:28.513Z,2.40
2023-05-03T11:37:55.585Z,2.10
2023-05-03T11:40:22.626Z,2.03
2023-05-03T11:42:54.250Z,2.60
2023-05-03T11:45:26.523Z,2.30
2023-05-03T11:47:54.008Z,2.30
2023-05-03T11:50:28.097Z,2.37
2023-05-03T11:52:58.527Z,2.20
2023-05-03T11:55:26.298Z,2.10
2023-05-03T11:57:53.040Z,2.43
2023-05-03T12:00:22.041Z,2.47
2023-05-03T12:02:49.205Z,2.40
2023-05-03T12:05:17.403Z,2.30
2023-05-03T12:07:44.860Z,2.53
2023-05-03T12:10:22.853Z,2.60
2023-05-03T12:12:56.897Z,2.37
2023-05-03T12:15:36.911Z,2.20
2023-05-03T12:18:13.198Z,2.70
2023-05-03T12:23:11.159Z,2.40
2023-05-03T12:25:39.649Z,2.50
2023-05-03T12:28:19.748Z,3.30
2023-05-03T12:30:47.493Z,2.60
2023-05-03T12:33:16.875Z,2.93
2023-05-03T12:35:47.505Z,2.80
2023-05-03T12:38:16.475Z,2.83
2023-05-03T12:40:48.601Z,2.40
2023-05-03T12:43:16.427Z,2.10
2023-05-03T12:45:47.927Z,2.47
2023-05-03T12:48:20.906Z,2.33
2023-05-03T12:50:51.504Z,2.40
2023-05-03T12:53:18.841Z,2.40
2023-05-03T12:55:50.931Z,2.60
2023-05-03T13:01:26.818Z,2.40
2023-05-03T13:03:42.999Z,2.10
2023-05-03T13:06:13.920Z,2.30
2023-05-03T13:08:49.556Z,2.13
2023-05-03T13:11:19.416Z,2.37
2023-05-03T13:13:46.613Z,2.53
2023-05-03T13:16:14.520Z,2.43
2023-05-03T13:18:43.039Z,2.40
2023-05-03T13:21:11.153Z,2.40
2023-05-03T13:23:38.226Z,2.60
2023-05-03T13:26:05.043Z,2.47
2023-05-03T13:28:31.862Z,1.80
2023-05-03T13:30:58.625Z,2.00
2023-05-03T13:33:25.905Z,3.07
2023-05-03T13:35:53.940Z,2.63
2023-05-03T13:38:22.185Z,2.20
2023-05-03T13:40:49.174Z,2.10
2023-05-03T13:43:16.626Z,2.40
2023-05-03T13:45:45.962Z,1.60
2023-05-03T13:48:17.668Z,2.13
2023-05-03T13:50:46.040Z,1.70
2023-05-03T13:53:12.764Z,1.83
2023-05-03T13:55:39.532Z,1.87
2023-05-03T13:58:06.143Z,2.30
2023-05-03T14:00:32.777Z,2.60
2023-05-03T14:02:59.673Z,2.73
2023-05-03T14:05:26.405Z,2.60
2023-05-03T14:07:53.536Z,2.50
2023-05-03T14:10:20.232Z,2.33
2023-05-03T14:12:47.110Z,2.40
2023-05-03T14:15:15.052Z,2.60
2023-05-03T14:17:44.075Z,2.63
2023-05-03T14:20:12.399Z,2.20
2023-05-03T14:22:39.266Z,2.17
2023-05-03T14:25:06.960Z,2.30
2023-05-03T14:27:33.782Z,2.37
2023-05-03T14:30:00.636Z,2.77
2023-05-03T14:32:27.940Z,2.63
2023-05-03T14:34:54.593Z,2.20
2023-05-03T14:37:21.502Z,2.30
2023-05-03T14:39:49.729Z,2.33
2023-05-03T14:42:16.408Z,2.40
2023-05-03T14:44:43.113Z,2.53
2023-05-03T14:47:09.857Z,2.40
2023-05-03T14:49:40.810Z,2.53
2023-05-03T14:52:08.151Z,2.30
2023-05-03T14:54:35.526Z,2.00
2023-05-03T14:57:04.361Z,2.33
2023-05-03T14:59:33.832Z,2.20
2023-05-03T15:02:01.114Z,2.53
2023-05-03T15:04:28.350Z,2.30
2023-05-03T15:06:55.385Z,2.67
2023-05-03T15:09:22.010Z,2.43
2023-05-03T15:11:48.890Z,1.90
2023-05-03T15:14:17.538Z,1.93
2023-05-03T15:16:44.672Z,1.70
2023-05-03T15:19:11.686Z,1.60
2023-05-03T15:21:50.092Z,1.50
2023-05-03T15:24:17.725Z,1.80
2023-05-03T15:26:44.604Z,2.10
2023-05-03T15:29:11.414Z,2.00
2023-05-03T15:31:38.488Z,2.13
2023-05-03T15:34:06.174Z,1.53
2023-05-03T15:36:33.305Z,1.70
2023-05-03T15:39:00.051Z,1.70
2023-05-03T15:41:27.095Z,1.87
2023-05-03T15:43:53.847Z,2.00
2023-05-03T15:46:20.803Z,1.80
2023-05-03T15:48:47.584Z,1.70
2023-05-03T15:51:14.303Z,1.70
2023-05-03T15:53:41.218Z,1.90
2023-05-03T15:56:09.126Z,2.00
2023-05-03T15:58:36.730Z,1.70
2023-05-03T16:01:05.169Z,1.90
2023-05-03T16:03:31.942Z,1.70
2023-05-03T16:05:58.726Z,1.90
2023-05-03T16:08:26.310Z,1.80
2023-05-03T16:10:55.056Z,1.90
2023-05-03T16:13:23.131Z,1.73
2023-05-03T16:15:55.860Z,1.90
2023-05-03T16:18:23.294Z,1.80
2023-05-03T16:20:51.298Z,1.70
2023-05-03T16:23:17.989Z,1.80
2023-05-03T16:25:44.650Z,1.47
2023-05-03T16:28:11.458Z,1.40
2023-05-03T16:30:38.385Z,1.50
2023-05-03T16:33:06.564Z,1.50
2023-05-03T16:35:33.287Z,2.00
2023-05-03T16:38:00.192Z,1.75
2023-05-03T16:40:27.157Z,1.90
2023-05-03T16:42:55.753Z,1.83
2023-05-03T16:45:22.407Z,1.70
2023-05-03T16:47:49.122Z,1.80
2023-05-03T16:50:17.578Z,2.53
2023-05-03T16:52:44.692Z,1.90
2023-05-03T16:55:12.589Z,1.77
2023-05-03T16:57:40.149Z,1.77
2023-05-03T17:00:09.557Z,2.10
2023-05-03T17:02:37.579Z,1.90
2023-05-03T17:05:05.840Z,2.10
2023-05-03T17:07:33.764Z,1.87
2023-05-03T17:10:01.497Z,1.80
2023-05-03T17:12:29.452Z,1.93
2023-05-03T17:14:56.222Z,1.73
2023-05-03T17:17:22.861Z,1.90
2023-05-03T17:19:49.601Z,1.60
2023-05-03T17:22:16.791Z,1.77
2023-05-03T17:24:43.584Z,1.80
2023-05-03T17:27:10.407Z,1.70
2023-05-03T17:29:37.079Z,1.70
2023-05-03T17:32:04.054Z,1.30
2023-05-03T17:34:32.289Z,1.63
2023-05-03T17:36:59.423Z,1.80
2023-05-03T17:39:26.213Z,1.50
2023-05-03T17:41:53.515Z,1.80
2023-05-03T17:44:20.209Z,1.87
2023-05-03T17:46:46.995Z,2.00
2023-05-03T17:49:15.052Z,2.20
2023-05-03T17:51:41.674Z,1.93
2023-05-03T17:54:08.602Z,1.80
2023-05-03T17:56:35.581Z,1.97
2023-05-03T17:59:02.387Z,1.80
2023-05-03T18:01:29.427Z,2.63
2023-05-03T18:03:56.236Z,2.17
2023-05-03T18:06:23.133Z,2.17
2023-05-03T18:08:52.138Z,2.20
2023-05-03T18:11:18.812Z,1.70
2023-05-03T18:13:45.484Z,2.30
2023-05-03T18:16:12.416Z,2.23
2023-05-03T18:18:39.331Z,2.20
2023-05-03T18:21:07.155Z,2.00
2023-05-03T18:23:35.615Z,2.27
2023-05-03T18:26:02.811Z,1.90
2023-05-03T18:28:30.421Z,2.23
2023-05-03T18:30:57.731Z,1.80
2023-05-03T18:33:25.236Z,2.30
2023-05-03T18:35:53.264Z,2.00
2023-05-03T18:38:21.980Z,2.17
2023-05-03T18:40:50.839Z,2.10
2023-05-03T18:43:19.450Z,2.17
2023-05-03T18:45:46.559Z,2.13
2023-05-03T18:48:13.434Z,1.70
2023-05-03T18:50:43.233Z,1.93
2023-05-03T18:53:14.266Z,2.07
2023-05-03T18:55:42.131Z,1.77
2023-05-03T18:58:09.045Z,2.23
2023-05-03T19:00:35.998Z,2.23
2023-05-03T19:03:04.229Z,2.00
2023-05-03T19:05:31.160Z,2.57
2023-05-03T19:07:58.033Z,2.20
2023-05-03T19:10:24.867Z,2.17
2023-05-03T19:12:53.581Z,2.50
2023-05-03T19:15:21.082Z,2.47
2023-05-03T19:17:47.778Z,2.50
2023-05-03T19:20:14.636Z,2.33
2023-05-03T19:22:41.499Z,2.37
2023-05-03T19:25:08.518Z,2.80
2023-05-03T19:27:35.493Z,3.10
2023-05-03T19:30:05.050Z,2.97
2023-05-03T19:32:35.899Z,3.30
2023-05-03T19:35:02.722Z,2.50
2023-05-03T19:37:29.565Z,2.80
2023-05-03T19:39:56.233Z,2.83
2023-05-03T19:42:22.843Z,3.10
2023-05-03T19:44:50.392Z,3.10
2023-05-03T19:47:17.663Z,3.10
2023-05-03T19:49:45.606Z,3.03
2023-05-03T19:52:13.092Z,3.20
2023-05-03T19:54:40.692Z,2.73
2023-05-03T19:57:07.881Z,2.73
2023-05-03T19:59:34.657Z,2.73
2023-05-03T20:02:01.455Z,3.33
2023-05-03T20:04:28.314Z,2.80
2023-05-03T20:06:55.009Z,3.30
2023-05-03T20:09:23.464Z,2.87
2023-05-03T20:11:56.316Z,3.23
2023-05-03T20:14:23.055Z,3.10
2023-05-03T20:16:49.785Z,3.27
2023-05-03T20:19:16.830Z,3.23
2023-05-03T20:21:43.593Z,2.60
2023-05-03T20:24:11.219Z,3.23
2023-05-03T20:26:38.527Z,2.80
2023-05-03T20:29:05.702Z,3.00
2023-05-03T20:31:32.889Z,3.60
2023-05-03T20:33:59.761Z,3.30
2023-05-03T20:36:26.393Z,3.10
2023-05-03T20:38:54.786Z,3.10
2023-05-03T20:41:22.123Z,3.00
2023-05-03T20:43:49.049Z,3.10
2023-05-03T20:46:16.024Z,3.33
2023-05-03T20:48:42.783Z,3.10
2023-05-03T20:51:09.867Z,3.60
2023-05-03T20:53:36.578Z,3.40
2023-05-03T20:56:06.666Z,3.30
2023-05-03T20:58:33.819Z,4.03
2023-05-03T21:01:04.209Z,3.90
2023-05-03T21:03:31.850Z,3.47
2023-05-03T21:05:58.849Z,3.50
2023-05-03T21:08:26.403Z,3.60
2023-05-03T21:10:54.250Z,3.70
2023-05-03T21:13:21.165Z,3.57
2023-05-03T21:15:48.325Z,3.57
2023-05-03T21:18:14.997Z,3.70
2023-05-03T21:20:41.629Z,3.57
2023-05-03T21:23:08.360Z,3.70
2023-05-03T21:25:35.033Z,4.20
2023-05-03T21:28:01.980Z,3.70
2023-05-03T21:30:28.871Z,3.87
2023-05-03T21:32:56.349Z,3.63
2023-05-03T21:35:24.298Z,3.47
2023-05-03T21:37:51.218Z,4.00
2023-05-03T21:40:18.017Z,3.57
2023-05-03T21:42:45.388Z,3.90
2023-05-03T21:45:12.852Z,4.00
2023-05-03T21:47:39.592Z,3.67
2023-05-03T21:50:07.350Z,3.80
2023-05-03T21:52:34.216Z,3.70
2023-05-03T21:55:00.997Z,3.90
2023-05-03T21:57:27.997Z,4.10
2023-05-03T21:59:58.446Z,3.70
2023-05-03T22:02:25.637Z,3.97
2023-05-03T22:04:52.943Z,3.80
2023-05-03T22:07:19.758Z,3.53
2023-05-03T22:09:47.931Z,4.23
2023-05-03T22:14:45.379Z,4.80
2023-05-03T22:17:12.059Z,4.23
2023-05-03T22:19:38.876Z,4.73
2023-05-03T22:22:05.558Z,4.30
2023-05-03T22:24:32.276Z,4.20
2023-05-03T22:26:59.350Z,4.10
2023-05-03T22:29:26.906Z,4.60
2023-05-03T22:31:53.838Z,5.77
2023-05-03T22:34:20.723Z,3.97
2023-05-03T22:36:47.380Z,4.10
2023-05-03T22:39:14.065Z,4.27
2023-05-03T22:41:40.732Z,4.37
2023-05-03T22:44:07.344Z,4.80
2023-05-03T22:46:34.140Z,4.33
2023-05-03T22:49:00.818Z,5.17
2023-05-03T22:51:27.589Z,5.20
2023-05-03T22:53:54.214Z,4.93
2023-05-03T22:56:21.703Z,5.27
2023-05-03T22:58:48.564Z,4.77
2023-05-03T23:01:15.631Z,5.17
2023-05-03T23:03:42.755Z,5.07
2023-05-03T23:06:09.870Z,5.20
2023-05-03T23:08:36.787Z,4.80
2023-05-03T23:11:03.541Z,5.27
2023-05-03T23:13:30.427Z,4.70
2023-05-03T23:15:57.249Z,5.53
2023-05-03T23:18:24.007Z,5.20
2023-05-03T23:20:50.772Z,5.30
2023-05-03T23:23:17.489Z,5.83
2023-05-03T23:25:44.132Z,4.87
2023-05-03T23:28:11.237Z,5.63
2023-05-03T23:30:43.388Z,4.93
2023-05-03T23:33:10.901Z,5.77
2023-05-03T23:35:38.108Z,5.87
2023-05-03T23:38:05.005Z,5.83
2023-05-03T23:40:32.001Z,5.43
2023-05-03T23:42:58.763Z,6.73
2023-05-03T23:45:26.959Z,5.77
2023-05-03T23:47:53.952Z,5.17
2023-05-03T23:50:20.761Z,5.60
2023-05-03T23:52:47.701Z,5.57
2023-05-03T23:55:14.393Z,5.80
2023-05-03T23:57:41.460Z,5.80
